• Join FlightAware (Why Join?)
  • Login
  • US Flag 
08:37AM EDT


 

Airport Tracker/Info


-or-


 

Live Flight TrackerFlight Track Log ✈ N2727L ✈ 17-May-2012 ✈ KMFR - KTTD

Flight Track Log - Related Links

Times and Time Zones

All times are in EDT time to prevent confusion due to time zone crossing. See the N2727L flight status page for this flight to view local times or setup timezone preferences in your user account.

Time Position Orientation Groundspeed Altitude Reporting Facility
EDT Latitude Longitude Course Direction KTS MPH feet Rate Location/Type
01:35PM 42.5350 -122.9092 North 135 155 6,500  Level Seattle Center
01:39PM 42.6931 -122.8822 North 143 165 9,700 780 Climbing Seattle Center
01:40PM 42.7400 -122.8728 North 143 165 10,500 600 Climbing Seattle Center
01:41PM 42.7844 -122.8678 North 154 177 11,000 240 Climbing Seattle Center
01:42PM 42.8336 -122.8575 North 171 197 11,100  Climbing Seattle Center
01:43PM 42.8839 -122.8494 North 180 207 11,000  Descending Seattle Center
01:44PM 42.9356 -122.8417 North 184 212 11,100  Climbing Seattle Center
01:45PM 42.9861 -122.8328 North 184 212 11,100  Level Seattle Center
01:46PM 43.0372 -122.8258 North 185 213 11,100  Level Seattle Center
01:47PM 43.0864 -122.8178 North 180 207 11,100  Level Seattle Center
01:48PM 43.1378 -122.8075 North 183 211 11,100  Level Seattle Center
01:49PM 43.1994 -122.7983 North 185 213 11,100  Level Seattle Center
01:50PM 43.2508 -122.7889 347° North 186 214 11,100  Level Seattle Center
01:51PM 43.2986 -122.8042 341° North 179 206 11,100  Level Seattle Center
01:52PM 43.3464 -122.8264 343° North 179 206 11,100  Level Seattle Center
01:53PM 43.3942 -122.8469 344° North 179 206 11,100  Level Seattle Center
01:54PM 43.4417 -122.8656 344° North 178 205 11,100  Level Seattle Center
01:55PM 43.4886 -122.8839 344° North 176 203 11,100  Level Seattle Center
01:56PM 43.5350 -122.9019 345° North 174 200 11,200  Climbing Seattle Center
01:57PM 43.5819 -122.9192 344° North 174 200 11,100 -60 Descending Seattle Center
01:58PM 43.6378 -122.9411 344° North 174 200 11,100  Level Seattle Center
01:59PM 43.6842 -122.9600 344° North 173 199 11,200  Climbing Seattle Center
02:00PM 43.7308 -122.9781 343° North 174 200 11,200 -60 Level Seattle Center
02:01PM 43.7769 -122.9972 344° North 173 199 11,100 -60 Descending Seattle Center
02:02PM 43.8228 -123.0153 335° Northwest 172 198 11,100  Level Seattle Center
02:03PM 43.8658 -123.0428 347° North 170 196 11,200  Climbing Seattle Center
02:04PM 43.9122 -123.0578 345° North 170 196 11,200  Level Seattle Center
02:05PM 43.9592 -123.0747 343° North 172 198 11,200  Level Seattle Center
02:06PM 44.0050 -123.0942 344° North 173 199 11,200  Level Seattle Center
02:07PM 44.0542 -123.1133 344° North 172 198 11,200  Level Seattle Center
02:08PM 44.1006 -123.1319 344° North 173 199 11,200  Level Seattle Center
02:09PM 44.1469 -123.1500 344° North 173 199 11,200  Level Seattle Center
02:10PM 44.2022 -123.1722 345° North 173 199 11,200  Level Seattle Center
02:12PM 44.2481 -123.1897 345° North 172 198 11,200  Level Seattle Center
02:13PM 44.2950 -123.2075 347° North 174 200 11,200  Level Seattle Center
02:14PM 44.3422 -123.2228 15° North 175 201 11,200  Level Seattle Center
02:15PM 44.3906 -123.2047 10° North 177 204 11,200  Level Seattle Center
02:16PM 44.4389 -123.1922 10° North 178 205 11,200  Level Seattle Center
02:17PM 44.4881 -123.1797 North 179 206 11,200  Level Seattle Center
02:18PM 44.5375 -123.1689 North 179 206 11,200  Level Seattle Center
02:19PM 44.5972 -123.1561 North 182 209 11,200  Level Seattle Center
02:20PM 44.6458 -123.1447 10° North 180 207 11,200  Level Seattle Center
02:21PM 44.6950 -123.1322 36° Northeast 179 206 11,200  Level Seattle Center
02:22PM 44.7375 -123.0892 35° Northeast 192 221 11,200 -300 Level Seattle Center
02:23PM 44.7811 -123.0458 32° Northeast 193 222 10,700 -600 Descending Seattle Center
02:23PM 44.8119 -123.0186 32° Northeast 200 230 10,300 -780 Descending Seattle Center
02:25PM 44.8739 -122.9644 31° Northeast 202 232 9,300 -780 Descending Seattle Center
02:26PM 44.9231 -122.9222 29° Northeast 201 231 8,500 -840 Descending Seattle Center
02:27PM 44.9728 -122.8828 31° Northeast 199 229 7,700 -780 Descending Seattle Center
02:28PM 45.0222 -122.8406 29° Northeast 193 222 6,900 -780 Descending Seattle Center
02:29PM 45.0647 -122.8075 33° Northeast 190 219 6,200 -780 Descending Seattle Center
02:30PM 45.1081 -122.7681 27° Northeast 186 214 5,500 -660 Descending Seattle Center
02:31PM 45.1586 -122.7311 31° Northeast 179 206 4,900 -480 Descending Seattle Center
02:32PM 45.2006 -122.6953 31° Northeast 176 203 4,500 -480 Descending Seattle Center
02:33PM 45.2444 -122.6583 32° Northeast 175 201 3,900 -540 Descending Seattle Center
02:34PM 45.2842 -122.6233 33° Northeast 172 198 3,400 -540 Descending Seattle Center
02:35PM 45.3275 -122.5833 32° Northeast 172 198 2,900 -420 Descending Seattle Center
02:36PM 45.3708 -122.5453 32° Northeast 174 200 2,600 -180 Descending Seattle Center
02:37PM 45.4164 -122.5053 32° Northeast 161 185 2,600 -120 Level Seattle Center
02:38PM 45.4467 -122.4783 19° North 162 186 2,400 -540 Descending Seattle Center
02:39PM 45.4964 -122.4536 35° Northeast 174 200 1,600 -540 Descending Seattle Center
02:40PM 45.5283 -122.4219 92° East 166 191 1,500 -180 Descending Seattle Center
02:41PM 45.5272 -122.3631 341° North 140 161 1,300 -540 Descending Seattle Center
02:42PM 45.5497 -122.3739 341° North 124 143 400 -900 Descending Seattle Center